Time,TemperatureF,DewpointF,PressureIn,WindDirection,WindDirectionDegrees,WindSpeedMPH,WindSpeedGustMPH,Humidity,HourlyPrecipIn,Conditions,Clouds,dailyrainin,SoftwareType,DateUTC
2013-04-13 00:03:00,58.0,38.0,29.84,West,277,4.0,15.0,47,0.00,,,1.00,,2013-04-13 04:03:00,
2013-04-13 00:12:00,58.0,38.0,29.84,West,277,4.0,15.0,47,0.00,,,1.00,,2013-04-13 04:12:00,
2013-04-13 00:23:00,59.0,39.0,29.84,WNW,301,5.0,16.0,47,0.00,,,0.93,,2013-04-13 04:23:00,
2013-04-13 00:33:00,58.0,38.0,29.85,NNE,13,4.0,12.0,48,0.00,,,0.93,,2013-04-13 04:33:00,
2013-04-13 00:42:00,58.0,38.0,29.85,NNE,13,4.0,12.0,48,0.00,,,0.93,,2013-04-13 04:42:00,
2013-04-13 00:53:00,57.0,37.0,29.85,WNW,301,6.0,10.0,47,0.00,,,0.93,,2013-04-13 04:53:00,
2013-04-13 01:02:00,57.0,36.0,29.85,NNE,19,4.0,8.0,46,0.00,,,0.93,,2013-04-13 05:02:00,
2013-04-13 01:12:00,57.0,36.0,29.85,NNE,19,4.0,8.0,46,0.00,,,0.93,,2013-04-13 05:12:00,
2013-04-13 01:22:00,57.0,36.0,29.85,North,355,4.0,11.0,45,0.00,,,0.92,,2013-04-13 05:22:00,
2013-04-13 01:32:00,56.0,35.0,29.86,NW,304,4.0,9.0,45,0.00,,,0.92,,2013-04-13 05:32:00,
2013-04-13 01:43:00,56.0,35.0,29.86,NW,304,4.0,9.0,45,0.00,,,0.92,,2013-04-13 05:43:00,
2013-04-13 01:53:00,56.0,35.0,29.86,NNW,341,6.0,9.0,45,0.00,,,0.92,,2013-04-13 05:53:00,
2013-04-13 02:02:00,55.0,35.0,29.88,WNW,294,1.0,5.0,47,0.00,,,0.92,,2013-04-13 06:02:00,
2013-04-13 02:12:00,55.0,35.0,29.88,WNW,294,1.0,5.0,47,0.00,,,0.92,,2013-04-13 06:12:00,
2013-04-13 02:24:00,55.0,36.0,29.88,North,360,3.0,8.0,48,0.00,,,0.92,,2013-04-13 06:24:00,
2013-04-13 02:35:00,55.0,35.0,29.88,WNW,289,5.0,12.0,47,0.00,,,0.92,,2013-04-13 06:35:00,
2013-04-13 02:56:00,54.0,35.0,29.89,North,355,1.0,8.0,48,0.00,,,0.92,,2013-04-13 06:56:00,
2013-04-13 03:24:00,54.0,35.0,29.88,NNE,26,2.0,6.0,49,0.00,,,0.61,,2013-04-13 07:24:00,
2013-04-13 03:35:00,53.0,34.0,29.89,NNW,347,2.0,4.0,49,0.00,,,0.61,,2013-04-13 07:35:00,
2013-04-13 03:45:00,53.0,34.0,29.89,NNW,347,2.0,4.0,49,0.00,,,0.61,,2013-04-13 07:45:00,
2013-04-13 04:06:00,53.0,35.0,29.89,NNE,22,0.0,4.0,51,0.00,,,0.61,,2013-04-13 08:06:00,
2013-04-13 04:15:00,53.0,35.0,29.89,NNE,22,0.0,4.0,51,0.00,,,0.61,,2013-04-13 08:15:00,
2013-04-13 04:25:00,51.0,34.0,29.90,SW,234,0.0,2.0,53,0.00,,,0.06,,2013-04-13 08:25:00,
2013-04-13 04:35:00,50.0,36.0,29.90,SSW,199,1.0,2.0,59,0.00,,,0.06,,2013-04-13 08:35:00,
2013-04-13 04:45:00,50.0,36.0,29.90,SSW,199,1.0,2.0,59,0.00,,,0.06,,2013-04-13 08:45:00,
2013-04-13 04:55:00,48.0,36.0,29.90,East,82,2.0,3.0,63,0.00,,,0.06,,2013-04-13 08:55:00,
2013-04-13 05:05:00,48.0,38.0,29.90,ENE,74,0.0,1.0,67,0.00,,,0.06,,2013-04-13 09:05:00,
2013-04-13 05:15:00,48.0,38.0,29.90,ENE,74,0.0,1.0,67,0.00,,,0.06,,2013-04-13 09:15:00,
2013-04-13 05:24:00,47.0,37.0,29.91,ENE,74,0.0,2.0,68,0.00,,,0.01,,2013-04-13 09:24:00,
2013-04-13 05:37:00,46.0,36.0,29.91,SSW,208,0.0,3.0,69,0.00,,,0.01,,2013-04-13 09:37:00,
2013-04-13 05:55:00,46.0,38.0,29.92,South,179,0.0,1.0,73,0.00,,,0.01,,2013-04-13 09:55:00,
2013-04-13 06:05:00,45.0,37.0,29.92,WNW,288,0.0,2.0,73,0.00,,,0.01,,2013-04-13 10:05:00,
2013-04-13 06:15:00,45.0,38.0,29.92,West,281,0.0,2.0,76,0.00,,,0.01,,2013-04-13 10:15:00,
2013-04-13 06:24:00,45.0,38.0,29.92,West,281,0.0,2.0,76,0.00,,,0.01,,2013-04-13 10:24:00,
2013-04-13 06:37:00,44.0,37.0,29.93,WSW,247,1.0,2.0,76,0.00,,,0.01,,2013-04-13 10:37:00,
2013-04-13 06:46:00,44.0,37.0,29.93,WSW,247,1.0,2.0,76,0.00,,,0.01,,2013-04-13 10:46:00,
2013-04-13 07:13:00,43.0,36.0,29.94,NW,319,0.0,4.0,77,0.00,,,0.01,,2013-04-13 11:13:00,
2013-04-13 07:24:00,43.0,36.0,29.95,North,355,0.0,0.0,76,0.00,,,0.01,,2013-04-13 11:24:00,
2013-04-13 07:34:00,44.0,37.0,29.96,NE,43,0.0,0.0,77,0.00,,,0.01,,2013-04-13 11:34:00,
2013-04-13 07:45:00,44.0,37.0,29.96,NE,43,0.0,0.0,77,0.00,,,0.01,,2013-04-13 11:45:00,
2013-04-13 07:54:00,45.0,38.0,29.96,NE,43,0.0,0.0,75,0.00,,,0.01,,2013-04-13 11:54:00,
2013-04-13 08:08:00,46.0,39.0,29.97,West,261,0.0,0.0,76,0.00,,,0.01,,2013-04-13 12:08:00,
2013-04-13 08:15:00,46.0,39.0,29.97,West,261,0.0,0.0,76,0.00,,,0.01,,2013-04-13 12:15:00,
2013-04-13 08:25:00,48.0,40.0,29.97,ESE,113,0.0,0.0,74,0.00,,,0.01,,2013-04-13 12:25:00,
2013-04-13 08:35:00,49.0,40.0,29.98,West,266,0.0,2.0,71,0.00,,,0.01,,2013-04-13 12:35:00,
2013-04-13 08:47:00,49.0,40.0,29.98,West,266,0.0,2.0,71,0.00,,,0.01,,2013-04-13 12:47:00,
2013-04-13 08:55:00,53.0,42.0,29.98,West,264,0.0,2.0,66,0.00,,,0.01,,2013-04-13 12:55:00,
2013-04-13 09:06:00,56.0,41.0,29.98,WSW,244,1.0,2.0,58,0.00,,,0.01,,2013-04-13 13:06:00,
2013-04-13 09:15:00,56.0,41.0,29.98,WSW,244,1.0,2.0,58,0.00,,,0.01,,2013-04-13 13:15:00,
2013-04-13 09:30:00,57.0,40.0,29.98,SSE,167,2.0,3.0,53,0.00,,,0.01,,2013-04-13 13:30:00,
2013-04-13 09:48:00,57.0,39.0,29.98,WNW,282,1.0,5.0,51,0.00,,,0.01,,2013-04-13 13:48:00,
2013-04-13 09:57:00,58.0,38.0,29.98,WSW,250,2.0,6.0,47,0.00,,,0.01,,2013-04-13 13:57:00,
2013-04-13 10:05:00,59.0,38.0,29.98,SSE,148,1.0,6.0,46,0.00,,,0.01,,2013-04-13 14:05:00,
2013-04-13 10:15:00,59.0,38.0,29.98,SSE,148,1.0,6.0,46,0.00,,,0.01,,2013-04-13 14:15:00,
2013-04-13 10:24:00,59.0,38.0,29.99,North,9,2.0,4.0,46,0.00,,,0.01,,2013-04-13 14:24:00,
2013-04-13 10:39:00,60.0,40.0,29.99,ESE,116,1.0,5.0,47,0.00,,,0.01,,2013-04-13 14:39:00,
2013-04-13 10:46:00,60.0,40.0,29.99,ESE,116,1.0,5.0,47,0.00,,,0.01,,2013-04-13 14:46:00,
2013-04-13 11:00:00,60.0,40.0,29.99,WSW,247,3.0,4.0,48,0.00,,,0.01,,2013-04-13 15:00:00,
2013-04-13 11:05:00,61.0,40.0,29.99,South,173,3.0,6.0,46,0.00,,,0.01,,2013-04-13 15:05:00,
2013-04-13 11:14:00,61.0,40.0,29.99,South,173,3.0,6.0,46,0.00,,,0.01,,2013-04-13 15:14:00,
2013-04-13 11:36:00,62.0,39.0,30.00,WSW,253,7.0,11.0,43,0.00,,,0.00,,2013-04-13 15:36:00,
2013-04-13 11:44:00,62.0,39.0,30.00,WSW,253,7.0,11.0,43,0.00,,,0.00,,2013-04-13 15:44:00,
2013-04-13 11:58:00,62.0,40.0,30.00,SW,233,7.0,11.0,45,0.00,,,0.00,,2013-04-13 15:58:00,
2013-04-13 12:07:00,62.0,40.0,30.00,SSW,213,5.0,11.0,44,0.00,,,0.00,,2013-04-13 16:07:00,
2013-04-13 12:15:00,62.0,40.0,30.00,SSW,213,5.0,11.0,44,0.00,,,0.00,,2013-04-13 16:15:00,
2013-04-13 12:25:00,63.0,40.0,30.00,South,174,6.0,10.0,42,0.00,,,0.00,,2013-04-13 16:25:00,
2013-04-13 12:36:00,64.0,40.0,30.00,WSW,256,7.0,13.0,42,0.00,,,0.00,,2013-04-13 16:36:00,
2013-04-13 12:46:00,64.0,40.0,30.00,WSW,256,7.0,13.0,42,0.00,,,0.00,,2013-04-13 16:46:00,
2013-04-13 13:07:00,65.0,40.0,29.99,West,259,7.0,12.0,40,0.00,,,0.00,,2013-04-13 17:07:00,
2013-04-13 13:21:00,65.0,40.0,29.99,West,259,7.0,12.0,40,0.00,,,0.00,,2013-04-13 17:21:00,
2013-04-13 13:38:00,66.0,40.0,29.98,NW,304,8.0,13.0,38,0.00,,,0.00,,2013-04-13 17:38:00,
2013-04-13 14:04:00,67.0,39.0,29.97,WSW,240,8.0,12.0,36,0.00,,,0.00,,2013-04-13 18:04:00,
2013-04-13 14:15:00,68.0,39.0,29.96,WNW,286,3.0,7.0,34,0.00,,,0.00,,2013-04-13 18:15:00,
2013-04-13 14:33:00,69.0,37.0,29.96,West,261,8.0,12.0,31,0.00,,,0.00,,2013-04-13 18:33:00,
2013-04-13 14:42:00,69.0,37.0,29.96,West,261,8.0,12.0,31,0.00,,,0.00,,2013-04-13 18:42:00,
2013-04-13 14:53:00,70.0,37.0,29.95,West,267,9.0,12.0,30,0.00,,,0.00,,2013-04-13 18:53:00,
2013-04-13 15:03:00,71.0,33.0,29.95,West,267,10.0,13.0,25,0.00,,,0.00,,2013-04-13 19:03:00,
2013-04-13 15:12:00,71.0,33.0,29.95,West,267,10.0,13.0,25,0.00,,,0.00,,2013-04-13 19:12:00,
2013-04-13 15:22:00,72.0,26.0,29.94,North,11,5.0,9.0,18,0.00,,,0.00,,2013-04-13 19:22:00,
2013-04-13 15:32:00,74.0,35.0,29.94,NW,323,3.0,12.0,24,0.00,,,0.00,,2013-04-13 19:32:00,
2013-04-13 15:42:00,74.0,35.0,29.94,NW,323,3.0,12.0,24,0.00,,,0.00,,2013-04-13 19:42:00,
2013-04-13 15:53:00,73.0,30.0,29.94,West,265,5.0,11.0,20,0.00,,,0.00,,2013-04-13 19:53:00,
2013-04-13 16:02:00,73.0,30.0,29.93,North,360,4.0,12.0,20,0.00,,,0.00,,2013-04-13 20:02:00,
2013-04-13 16:12:00,73.0,30.0,29.93,North,360,4.0,12.0,20,0.00,,,0.00,,2013-04-13 20:12:00,
2013-04-13 16:22:00,75.0,34.0,29.93,WNW,282,4.0,7.0,22,0.00,,,0.00,,2013-04-13 20:22:00,
2013-04-13 16:32:00,74.0,30.0,29.93,WNW,303,6.0,9.0,20,0.00,,,0.00,,2013-04-13 20:32:00,
2013-04-13 16:42:00,74.0,30.0,29.93,WNW,303,6.0,9.0,20,0.00,,,0.00,,2013-04-13 20:42:00,
2013-04-13 16:52:00,74.0,33.0,29.93,NNW,347,5.0,10.0,22,0.00,,,0.00,,2013-04-13 20:52:00,
2013-04-13 17:02:00,74.0,33.0,29.93,WNW,284,3.0,7.0,22,0.00,,,0.00,,2013-04-13 21:02:00,
2013-04-13 17:12:00,74.0,33.0,29.93,WNW,284,3.0,7.0,22,0.00,,,0.00,,2013-04-13 21:12:00,
2013-04-13 17:22:00,74.0,33.0,29.93,North,350,3.0,13.0,22,0.00,,,0.00,,2013-04-13 21:22:00,
2013-04-13 17:33:00,74.0,34.0,29.93,WNW,294,5.0,8.0,23,0.00,,,0.00,,2013-04-13 21:33:00,
2013-04-13 17:43:00,74.0,34.0,29.93,WNW,294,5.0,8.0,23,0.00,,,0.00,,2013-04-13 21:43:00,
2013-04-13 17:53:00,73.0,33.0,29.93,West,279,3.0,8.0,23,0.00,,,0.00,,2013-04-13 21:53:00,
2013-04-13 18:03:00,73.0,31.0,29.93,NW,312,7.0,14.0,21,0.00,,,0.00,,2013-04-13 22:03:00,
2013-04-13 18:13:00,73.0,31.0,29.93,NW,312,7.0,14.0,21,0.00,,,0.00,,2013-04-13 22:13:00,
2013-04-13 18:22:00,73.0,32.0,29.94,NNW,338,4.0,10.0,22,0.00,,,0.00,,2013-04-13 22:22:00,
2013-04-13 18:33:00,72.0,31.0,29.95,WNW,288,4.0,11.0,22,0.00,,,0.00,,2013-04-13 22:33:00,
2013-04-13 18:42:00,72.0,31.0,29.95,WNW,288,4.0,11.0,22,0.00,,,0.00,,2013-04-13 22:42:00,
2013-04-13 18:53:00,72.0,31.0,29.95,West,281,5.0,12.0,22,0.00,,,0.00,,2013-04-13 22:53:00,
2013-04-13 19:02:00,71.0,32.0,29.96,West,274,4.0,18.0,24,0.00,,,0.00,,2013-04-13 23:02:00,
2013-04-13 19:12:00,71.0,32.0,29.96,West,274,4.0,10.0,24,0.00,,,0.00,,2013-04-13 23:12:00,
2013-04-13 19:22:00,71.0,32.0,29.96,West,274,4.0,10.0,24,0.00,,,0.00,,2013-04-13 23:22:00,
2013-04-13 19:32:00,70.0,34.0,29.96,SW,236,3.0,9.0,26,0.00,,,0.00,,2013-04-13 23:32:00,
2013-04-13 19:42:00,70.0,34.0,29.96,SW,236,3.0,9.0,26,0.00,,,0.00,,2013-04-13 23:42:00,
2013-04-13 20:03:00,67.0,33.0,29.97,WNW,295,2.0,4.0,28,0.00,,,0.00,,2013-04-14 00:03:00,
2013-04-13 20:12:00,67.0,33.0,29.97,WNW,295,2.0,4.0,28,0.00,,,0.00,,2013-04-14 00:12:00,
2013-04-13 20:22:00,66.0,33.0,29.97,WNW,289,2.0,5.0,29,0.00,,,0.00,,2013-04-14 00:22:00,
2013-04-13 20:32:00,65.0,33.0,29.98,WNW,288,1.0,3.0,30,0.00,,,0.00,,2013-04-14 00:32:00,
2013-04-13 20:42:00,65.0,33.0,29.98,WNW,288,1.0,3.0,30,0.00,,,0.00,,2013-04-14 00:42:00,
2013-04-13 20:52:00,65.0,33.0,29.98,NNW,333,1.0,2.0,30,0.00,,,0.00,,2013-04-14 00:52:00,
2013-04-13 21:02:00,64.0,34.0,29.99,West,272,1.0,4.0,32,0.00,,,0.00,,2013-04-14 01:02:00,
2013-04-13 21:12:00,64.0,34.0,29.99,West,272,1.0,4.0,32,0.00,,,0.00,,2013-04-14 01:12:00,
2013-04-13 21:22:00,63.0,34.0,30.01,WNW,302,1.0,2.0,34,0.00,,,0.00,,2013-04-14 01:22:00,
2013-04-13 21:32:00,62.0,33.0,30.01,WNW,302,1.0,2.0,34,0.00,,,0.00,,2013-04-14 01:32:00,
2013-04-13 21:42:00,62.0,33.0,30.01,WNW,302,1.0,2.0,34,0.00,,,0.00,,2013-04-14 01:42:00,
2013-04-13 21:53:00,62.0,35.0,30.02,WNW,296,1.0,2.0,37,0.00,,,0.00,,2013-04-14 01:53:00,
2013-04-13 22:02:00,60.0,35.0,30.02,WNW,297,0.0,0.0,39,0.00,,,0.00,,2013-04-14 02:02:00,
2013-04-13 22:12:00,59.0,35.0,30.03,WNW,289,0.0,0.0,40,0.00,,,0.00,,2013-04-14 02:12:00,
2013-04-13 22:22:00,59.0,35.0,30.03,WNW,289,0.0,0.0,40,0.00,,,0.00,,2013-04-14 02:22:00,
2013-04-13 22:32:00,58.0,38.0,30.03,WNW,289,0.0,0.0,48,0.00,,,0.00,,2013-04-14 02:32:00,
2013-04-13 22:42:00,58.0,38.0,30.03,WNW,289,0.0,0.0,48,0.00,,,0.00,,2013-04-14 02:42:00,
2013-04-13 22:53:00,56.0,36.0,30.04,West,259,1.0,3.0,47,0.00,,,0.00,,2013-04-14 02:53:00,
2013-04-13 23:03:00,56.0,36.0,30.05,WNW,292,1.0,3.0,46,0.00,,,0.00,,2013-04-14 03:03:00,
2013-04-13 23:12:00,56.0,36.0,30.05,WNW,292,1.0,3.0,46,0.00,,,0.00,,2013-04-14 03:12:00,
2013-04-13 23:22:00,57.0,36.0,30.05,West,279,1.0,2.0,45,0.00,,,0.00,,2013-04-14 03:22:00,
2013-04-13 23:33:00,57.0,35.0,30.05,West,279,1.0,2.0,44,0.00,,,0.00,,2013-04-14 03:33:00,
2013-04-13 23:42:00,57.0,35.0,30.05,West,279,1.0,2.0,44,0.00,,,0.00,,2013-04-14 03:42:00,
2013-04-13 23:53:00,56.0,40.0,30.06,West,279,0.0,1.0,55,0.00,,,0.00,,2013-04-14 03:53:00,